Weather at Spring Brook Airport

Public forecast

Using degrees Fahrenheit for public forecast. Weather courtesy of forecast.io.

Closest aviation weather report (METAR) to Spring Brook Airport

Closest report is Oswego County Airport, 7.4 nm (13.6 km) W. Retrieved 2020/12/03 12:30 UTC (53 seconds ago):

KFZY 031230Z AUTO 19008KT 10SM BKN026 02/M03 A3007 RMK AO2 T00171028

Closest aviation forecast (TAF) to Spring Brook Airport

Closest forecast is Syracuse Hancock International Airport, 15.8 nm (29.3 km) SSE. Retrieved 2020/12/03 12:40 UTC (0 seconds ago):

TAF KSYR 031138Z 0312/0412 24009KT P6SM FEW035 BKN250 FM031500 24015G22KT P6SM BKN250 FM032300 23010KT P6SM BKN250